Aviation Digital Data Service (ADDS)

Output produced by METARs form (0431 UTC 22 September 2017)
found at http://www.aviationweather.gov/adds/metars/
 
TAF SYCJ 212343Z 2200/2224 06004KT CAVOK 
     PROB30 
     TEMPO 2208/2211 00000KT 4000 BR 
     BECMG 2211/2213 09012KT BKN018